createdAt,value
2018-09-18T00:02:13.516Z,8.00
2018-09-18T00:04:41.465Z,8.00
2018-09-18T00:07:09.252Z,8.00
2018-09-18T00:09:37.065Z,7.90
2018-09-18T00:12:04.895Z,7.90
2018-09-18T00:14:33.267Z,7.90
2018-09-18T00:17:01.179Z,7.90
2018-09-18T00:19:29.065Z,7.90
2018-09-18T00:21:57.191Z,7.80
2018-09-18T00:24:24.976Z,7.80
2018-09-18T00:26:52.710Z,7.80
2018-09-18T00:29:20.509Z,7.80
2018-09-18T00:31:48.484Z,7.80
2018-09-18T00:34:16.345Z,7.80
2018-09-18T00:36:44.129Z,7.80
2018-09-18T00:39:11.875Z,7.70
2018-09-18T00:41:39.492Z,7.70
2018-09-18T00:44:07.289Z,7.60
2018-09-18T00:46:35.878Z,7.70
2018-09-18T00:49:03.761Z,7.60
2018-09-18T00:51:31.601Z,7.60
2018-09-18T00:53:59.311Z,7.60
2018-09-18T00:56:27.093Z,7.50
2018-09-18T00:58:54.770Z,7.60
2018-09-18T01:01:22.431Z,7.60
2018-09-18T01:03:50.603Z,7.50
2018-09-18T01:06:18.575Z,7.50
2018-09-18T01:08:46.320Z,7.40
2018-09-18T01:11:14.166Z,7.50
2018-09-18T01:13:42.235Z,7.40
2018-09-18T01:16:10.058Z,7.40
2018-09-18T01:18:38.718Z,7.40
2018-09-18T01:21:06.720Z,7.40
2018-09-18T01:23:34.600Z,7.50
2018-09-18T01:26:02.726Z,7.50
2018-09-18T01:28:30.581Z,7.50
2018-09-18T01:30:58.548Z,7.50
2018-09-18T01:33:26.235Z,7.50
2018-09-18T01:35:54.163Z,7.50
2018-09-18T01:38:22.271Z,7.50
2018-09-18T01:40:50.082Z,7.40
2018-09-18T01:43:18.188Z,7.40
2018-09-18T01:45:45.894Z,7.40
2018-09-18T01:48:13.656Z,7.40
2018-09-18T01:50:42.108Z,7.40
2018-09-18T01:53:09.749Z,7.40
2018-09-18T01:55:37.560Z,7.40
2018-09-18T01:58:05.545Z,7.30
2018-09-18T02:00:33.329Z,7.30
2018-09-18T02:03:01.120Z,7.30
2018-09-18T02:05:29.006Z,7.30
2018-09-18T02:07:56.922Z,7.30
2018-09-18T02:10:24.814Z,7.20
2018-09-18T02:12:52.735Z,7.20
2018-09-18T02:15:20.829Z,7.20
2018-09-18T02:17:48.693Z,7.20
2018-09-18T02:20:16.446Z,7.20
2018-09-18T02:22:44.240Z,7.20
2018-09-18T02:25:12.025Z,7.20
2018-09-18T02:27:39.789Z,7.10
2018-09-18T02:30:07.668Z,7.10
2018-09-18T02:32:35.842Z,7.10
2018-09-18T02:35:04.184Z,7.10
2018-09-18T02:37:32.082Z,7.10
2018-09-18T02:39:59.731Z,7.10
2018-09-18T02:42:28.263Z,7.10
2018-09-18T02:44:56.041Z,7.10
2018-09-18T02:47:23.806Z,7.10
2018-09-18T02:49:51.678Z,7.10
2018-09-18T02:52:19.646Z,7.10
2018-09-18T02:54:47.499Z,7.10
2018-09-18T02:57:15.360Z,7.10
2018-09-18T02:59:43.501Z,7.10
2018-09-18T03:02:11.244Z,7.10
2018-09-18T03:04:39.323Z,7.10
2018-09-18T03:07:07.292Z,7.10
2018-09-18T03:09:35.009Z,7.10
2018-09-18T03:12:02.867Z,7.10
2018-09-18T03:14:31.940Z,7.10
2018-09-18T03:16:59.687Z,7.10
2018-09-18T03:19:27.594Z,7.10
2018-09-18T03:21:55.407Z,7.10
2018-09-18T03:24:23.322Z,7.10
2018-09-18T03:26:51.148Z,7.10
2018-09-18T03:29:19.042Z,7.10
2018-09-18T03:31:46.829Z,7.00
2018-09-18T03:34:14.607Z,7.00
2018-09-18T03:36:42.327Z,7.00
2018-09-18T03:39:10.045Z,6.90
2018-09-18T03:41:37.911Z,6.90
2018-09-18T03:44:05.722Z,6.90
2018-09-18T03:46:34.221Z,6.90
2018-09-18T03:49:02.120Z,6.90
2018-09-18T03:51:29.784Z,6.90
2018-09-18T03:53:57.588Z,6.90
2018-09-18T03:56:25.381Z,6.90
2018-09-18T03:58:53.216Z,6.90
2018-09-18T04:01:21.012Z,6.90
2018-09-18T04:03:48.842Z,6.90
2018-09-18T04:06:16.817Z,6.90
2018-09-18T04:08:44.681Z,6.90
2018-09-18T04:11:12.604Z,6.80
2018-09-18T04:13:40.481Z,6.80
2018-09-18T04:16:08.308Z,6.80
2018-09-18T04:18:36.185Z,6.90
2018-09-18T04:21:03.949Z,6.90
2018-09-18T04:23:31.857Z,6.90
2018-09-18T04:25:59.825Z,6.90
2018-09-18T04:28:27.705Z,6.90
2018-09-18T04:30:55.882Z,6.90
2018-09-18T04:33:23.847Z,6.90
2018-09-18T04:35:51.691Z,7.00
2018-09-18T04:38:19.649Z,6.90
2018-09-18T04:40:47.520Z,6.90
2018-09-18T04:43:15.274Z,6.90
2018-09-18T04:45:43.317Z,6.90
2018-09-18T04:48:11.057Z,6.90
2018-09-18T04:50:38.929Z,6.90
2018-09-18T04:53:06.527Z,6.90
2018-09-18T04:55:34.287Z,7.00
2018-09-18T04:58:02.245Z,6.90
2018-09-18T05:00:30.356Z,7.00
2018-09-18T05:02:58.094Z,7.00
2018-09-18T05:05:25.864Z,7.00
2018-09-18T05:07:53.643Z,6.90
2018-09-18T05:10:21.529Z,7.00
2018-09-18T05:12:49.278Z,7.00
2018-09-18T05:15:17.104Z,6.90
2018-09-18T05:17:44.707Z,7.00
2018-09-18T05:20:12.593Z,7.00
2018-09-18T05:22:40.659Z,7.00
2018-09-18T05:25:08.571Z,6.90
2018-09-18T05:27:36.373Z,6.90
2018-09-18T05:30:04.542Z,7.00
2018-09-18T05:32:32.457Z,7.00
2018-09-18T05:35:00.353Z,7.10
2018-09-18T05:37:28.111Z,7.20
2018-09-18T05:39:55.784Z,7.20
2018-09-18T05:43:27.054Z,7.30
2018-09-18T05:45:54.876Z,7.30
2018-09-18T05:48:22.653Z,7.30
2018-09-18T05:50:50.354Z,7.40
2018-09-18T05:53:18.431Z,7.40
2018-09-18T05:55:46.381Z,7.50
2018-09-18T05:58:14.424Z,7.60
2018-09-18T06:00:42.694Z,7.60
2018-09-18T06:03:10.369Z,7.70
2018-09-18T06:05:38.251Z,7.80
2018-09-18T06:08:06.225Z,7.80
2018-09-18T06:10:34.372Z,7.90
2018-09-18T06:13:02.783Z,8.00
2018-09-18T06:15:30.648Z,8.00
2018-09-18T06:17:58.569Z,8.10
2018-09-18T06:20:26.269Z,8.20
2018-09-18T06:22:54.289Z,8.30
2018-09-18T06:25:22.173Z,8.40
2018-09-18T06:27:50.036Z,8.50
2018-09-18T06:30:17.870Z,8.70
2018-09-18T06:32:45.896Z,8.80
2018-09-18T06:35:13.787Z,8.90
2018-09-18T06:37:41.793Z,9.10
2018-09-18T06:40:10.213Z,9.30
2018-09-18T06:42:38.633Z,9.40
2018-09-18T06:45:07.014Z,9.80
2018-09-18T06:47:35.181Z,10.20
2018-09-18T06:50:04.974Z,10.70
2018-09-18T06:52:33.608Z,11.10
2018-09-18T06:55:01.981Z,11.50
2018-09-18T06:57:29.892Z,11.90
2018-09-18T06:59:57.822Z,12.30
2018-09-18T07:02:25.620Z,12.60
2018-09-18T07:04:53.718Z,13.00
2018-09-18T07:07:21.497Z,13.30
2018-09-18T07:09:49.341Z,13.60
2018-09-18T07:12:17.393Z,13.90
2018-09-18T07:14:46.249Z,14.30
2018-09-18T07:17:14.236Z,14.50
2018-09-18T07:19:42.110Z,14.90
2018-09-18T07:22:10.299Z,15.20
2018-09-18T07:24:38.118Z,15.40
2018-09-18T07:27:06.350Z,15.70
2018-09-18T07:29:34.285Z,16.00
2018-09-18T07:32:02.468Z,16.10
2018-09-18T07:34:30.277Z,16.40
2018-09-18T07:36:58.423Z,16.60
2018-09-18T07:39:26.391Z,16.80
2018-09-18T07:41:55.025Z,17.10
2018-09-18T07:44:23.161Z,17.40
2018-09-18T07:46:51.269Z,17.80
2018-09-18T07:49:19.451Z,18.20
2018-09-18T07:51:47.423Z,18.60
2018-09-18T07:54:15.435Z,18.90
2018-09-18T07:56:43.703Z,19.20
2018-09-18T07:59:11.624Z,19.50
2018-09-18T08:01:39.510Z,19.80
2018-09-18T08:04:07.281Z,20.10
2018-09-18T08:06:36.686Z,20.50
2018-09-18T08:09:07.914Z,20.80
2018-09-18T08:11:36.538Z,21.10
2018-09-18T08:14:04.879Z,21.30
2018-09-18T08:16:32.755Z,21.50
2018-09-18T08:19:00.824Z,21.80
2018-09-18T08:21:28.898Z,22.00
2018-09-18T08:26:39.428Z,22.40
2018-09-18T08:29:07.782Z,22.60
2018-09-18T08:31:36.383Z,22.70
2018-09-18T08:34:04.522Z,22.90
2018-09-18T08:36:32.522Z,23.10
2018-09-18T08:39:00.522Z,23.30
2018-09-18T08:41:28.692Z,23.50
2018-09-18T08:43:57.663Z,23.60
2018-09-18T08:46:25.386Z,23.70
2018-09-18T08:48:57.601Z,23.90
2018-09-18T08:51:25.837Z,24.20
2018-09-18T08:53:53.809Z,24.30
2018-09-18T08:56:21.770Z,24.40
2018-09-18T08:58:50.012Z,24.60
2018-09-18T09:01:17.745Z,24.80
2018-09-18T09:03:45.552Z,24.90
2018-09-18T09:06:13.541Z,25.20
2018-09-18T09:08:41.385Z,25.40
2018-09-18T09:11:09.260Z,25.50
2018-09-18T09:13:37.618Z,25.60
2018-09-18T09:16:05.555Z,25.70
2018-09-18T09:18:33.417Z,25.80
2018-09-18T09:21:01.404Z,25.90
2018-09-18T09:23:29.636Z,26.10
2018-09-18T09:25:57.412Z,26.20
2018-09-18T09:28:25.018Z,26.30
2018-09-18T09:30:52.715Z,26.40
2018-09-18T09:33:20.489Z,26.40
2018-09-18T09:35:48.478Z,26.50
2018-09-18T09:38:17.144Z,26.60
2018-09-18T09:40:45.352Z,26.60
2018-09-18T09:43:13.120Z,26.70
2018-09-18T09:45:41.567Z,26.70
2018-09-18T09:48:09.570Z,26.60
2018-09-18T09:50:37.920Z,26.60
2018-09-18T09:53:06.723Z,26.60
2018-09-18T09:55:34.818Z,26.70
2018-09-18T09:58:02.855Z,26.70
2018-09-18T10:00:36.479Z,26.80
2018-09-18T10:03:04.479Z,26.90
2018-09-18T10:05:32.357Z,27.00
2018-09-18T10:08:01.205Z,27.00
2018-09-18T10:10:30.161Z,27.00
2018-09-18T10:12:57.848Z,27.00
2018-09-18T10:15:26.370Z,27.00
2018-09-18T10:17:54.560Z,27.00
2018-09-18T10:20:22.301Z,27.00
2018-09-18T10:22:50.620Z,27.10
2018-09-18T10:25:18.385Z,27.10
2018-09-18T10:27:46.340Z,27.10
2018-09-18T10:30:14.334Z,27.20
2018-09-18T10:32:42.316Z,27.20
2018-09-18T10:35:10.160Z,27.20
2018-09-18T10:37:38.135Z,27.30
2018-09-18T10:40:06.172Z,27.30
2018-09-18T10:42:34.603Z,27.40
2018-09-18T10:45:02.948Z,27.40
2018-09-18T10:47:31.453Z,27.40
2018-09-18T10:49:59.927Z,27.40
2018-09-18T10:52:28.300Z,27.40
2018-09-18T10:55:09.280Z,27.40
2018-09-18T11:00:28.883Z,27.50
2018-09-18T11:02:57.673Z,27.60
2018-09-18T11:05:26.072Z,27.60
2018-09-18T11:07:54.403Z,27.60
2018-09-18T11:10:22.746Z,27.60
2018-09-18T11:12:51.452Z,27.60
2018-09-18T11:15:22.551Z,27.60
2018-09-18T11:17:50.932Z,27.50
2018-09-18T11:20:19.059Z,27.40
2018-09-18T11:22:47.958Z,27.50
2018-09-18T11:25:16.815Z,27.50
2018-09-18T11:27:45.866Z,27.60
2018-09-18T11:30:14.394Z,27.60
2018-09-18T11:32:43.506Z,27.60
2018-09-18T11:35:11.837Z,27.70
2018-09-18T11:37:40.260Z,27.70
2018-09-18T11:40:08.487Z,27.70
2018-09-18T11:42:36.924Z,27.70
2018-09-18T11:45:05.372Z,27.70
2018-09-18T11:47:34.001Z,27.80
2018-09-18T11:50:02.504Z,27.90
2018-09-18T11:52:31.107Z,27.90
2018-09-18T11:54:59.201Z,27.90
2018-09-18T11:57:27.608Z,27.80
2018-09-18T11:59:55.946Z,27.70
2018-09-18T12:02:24.159Z,27.70
2018-09-18T12:04:52.846Z,27.70
2018-09-18T12:07:21.678Z,27.60
2018-09-18T12:09:49.938Z,27.60
2018-09-18T12:12:18.164Z,27.60
2018-09-18T12:14:47.671Z,27.70
2018-09-18T12:17:17.325Z,27.80
2018-09-18T12:19:45.464Z,27.70
2018-09-18T12:22:14.035Z,27.70
2018-09-18T12:24:42.215Z,27.80
2018-09-18T12:27:10.564Z,27.80
2018-09-18T12:29:38.809Z,27.80
2018-09-18T12:32:07.703Z,27.90
2018-09-18T12:34:35.580Z,27.90
2018-09-18T12:37:04.810Z,28.00
2018-09-18T12:39:33.484Z,28.00
2018-09-18T12:42:01.691Z,28.00
2018-09-18T12:44:29.774Z,28.10
2018-09-18T12:46:58.315Z,28.10
2018-09-18T12:49:26.624Z,28.00
2018-09-18T12:51:55.030Z,28.00
2018-09-18T12:54:22.968Z,27.90
2018-09-18T12:56:51.701Z,27.90
2018-09-18T12:59:20.662Z,27.90
2018-09-18T13:01:48.765Z,27.90
2018-09-18T13:04:18.048Z,28.00
2018-09-18T13:06:46.299Z,28.10
2018-09-18T13:09:14.797Z,28.10
2018-09-18T13:11:45.195Z,28.10
2018-09-18T13:14:14.481Z,28.20
2018-09-18T13:16:42.349Z,28.20
2018-09-18T13:19:10.923Z,28.20
2018-09-18T13:21:39.318Z,28.10
2018-09-18T13:24:07.593Z,28.10
2018-09-18T13:26:36.795Z,28.10
2018-09-18T13:29:04.990Z,28.10
2018-09-18T13:31:33.410Z,28.00
2018-09-18T13:34:01.406Z,28.00
2018-09-18T13:36:29.434Z,28.00
2018-09-18T13:38:57.532Z,28.00
2018-09-18T13:41:25.859Z,28.00
2018-09-18T13:43:53.935Z,28.00
2018-09-18T13:46:23.368Z,28.00
2018-09-18T13:48:51.911Z,28.10
2018-09-18T13:51:20.495Z,28.10
2018-09-18T13:53:48.567Z,28.10
2018-09-18T13:56:16.960Z,28.10
2018-09-18T13:58:45.325Z,28.00
2018-09-18T14:01:13.984Z,28.00
2018-09-18T14:03:41.941Z,28.00
2018-09-18T14:06:11.205Z,28.10
2018-09-18T14:08:39.100Z,28.10
2018-09-18T14:11:07.129Z,28.00
2018-09-18T14:13:35.768Z,28.00
2018-09-18T14:16:03.782Z,27.90
2018-09-18T14:18:31.866Z,27.90
2018-09-18T14:20:59.819Z,27.90
2018-09-18T14:23:28.032Z,27.90
2018-09-18T14:25:56.264Z,27.90
2018-09-18T14:28:24.539Z,27.90
2018-09-18T14:30:53.252Z,27.90
2018-09-18T14:33:21.427Z,27.80
2018-09-18T14:35:49.493Z,27.80
2018-09-18T14:38:18.222Z,27.90
2018-09-18T14:40:46.351Z,27.80
2018-09-18T14:43:14.173Z,27.80
2018-09-18T14:45:42.378Z,27.80
2018-09-18T14:48:10.320Z,27.80
2018-09-18T14:50:38.441Z,27.80
2018-09-18T14:53:07.118Z,27.80
2018-09-18T14:55:35.263Z,27.70
2018-09-18T14:58:03.496Z,27.60
2018-09-18T15:00:31.487Z,27.60
2018-09-18T15:03:00.303Z,27.70
2018-09-18T15:05:28.117Z,27.60
2018-09-18T15:07:56.575Z,27.60
2018-09-18T15:10:24.902Z,27.60
2018-09-18T15:12:53.059Z,27.50
2018-09-18T15:15:21.252Z,27.50
2018-09-18T15:17:49.170Z,27.50
2018-09-18T15:20:16.972Z,27.50
2018-09-18T15:22:45.679Z,27.40
2018-09-18T15:25:13.671Z,27.40
2018-09-18T15:27:41.971Z,27.30
2018-09-18T15:30:10.880Z,27.30
2018-09-18T15:32:39.645Z,27.30
2018-09-18T15:35:07.659Z,27.20
2018-09-18T15:37:35.749Z,27.20
2018-09-18T15:40:04.016Z,27.20
2018-09-18T15:42:32.811Z,27.10
2018-09-18T15:45:00.780Z,27.00
2018-09-18T15:47:28.927Z,27.00
2018-09-18T15:49:57.033Z,26.90
2018-09-18T15:52:25.118Z,26.70
2018-09-18T15:54:53.216Z,26.50
2018-09-18T15:57:21.181Z,26.30
2018-09-18T15:59:49.611Z,26.10
2018-09-18T16:02:17.561Z,26.00
2018-09-18T16:04:46.946Z,25.90
2018-09-18T16:07:15.114Z,25.90
2018-09-18T16:09:43.394Z,25.70
2018-09-18T16:12:12.330Z,25.50
2018-09-18T16:14:41.126Z,25.50
2018-09-18T16:17:10.468Z,25.50
2018-09-18T16:19:39.095Z,25.40
2018-09-18T16:22:07.320Z,25.20
2018-09-18T16:24:35.443Z,25.00
2018-09-18T16:27:03.966Z,24.70
2018-09-18T16:29:32.376Z,24.60
2018-09-18T16:32:03.459Z,24.40
2018-09-18T16:34:32.041Z,24.20
2018-09-18T16:37:00.299Z,24.00
2018-09-18T16:39:28.760Z,23.80
2018-09-18T16:41:57.324Z,23.60
2018-09-18T16:44:28.147Z,23.40
2018-09-18T16:46:56.937Z,23.30
2018-09-18T16:49:24.853Z,23.10
2018-09-18T16:51:53.815Z,22.90
2018-09-18T16:54:22.501Z,22.70
2018-09-18T16:56:51.671Z,22.50
2018-09-18T16:59:20.746Z,22.40
2018-09-18T17:01:48.954Z,22.20
2018-09-18T17:04:18.593Z,22.00
2018-09-18T17:06:47.085Z,21.80
2018-09-18T17:09:16.467Z,21.60
2018-09-18T17:11:44.297Z,21.50
2018-09-18T17:14:12.990Z,21.30
2018-09-18T17:16:41.072Z,21.10
2018-09-18T17:19:09.181Z,20.90
2018-09-18T17:21:37.449Z,20.70
2018-09-18T17:24:05.489Z,20.60
2018-09-18T17:26:34.040Z,20.40
2018-09-18T17:29:02.511Z,20.30
2018-09-18T17:31:30.974Z,20.10
2018-09-18T17:33:59.206Z,20.00
2018-09-18T17:36:27.913Z,19.80
2018-09-18T17:38:56.606Z,19.70
2018-09-18T17:41:24.565Z,19.60
2018-09-18T17:43:53.031Z,19.40
2018-09-18T17:46:22.438Z,19.30
2018-09-18T17:48:51.768Z,19.10
2018-09-18T17:51:20.243Z,19.00
2018-09-18T17:53:49.621Z,18.90
2018-09-18T17:56:18.808Z,18.80
2018-09-18T17:58:46.883Z,18.70
2018-09-18T18:01:16.222Z,18.50
2018-09-18T18:03:44.405Z,18.40
2018-09-18T18:06:12.735Z,18.20
2018-09-18T18:08:40.903Z,18.10
2018-09-18T18:11:09.052Z,18.00
2018-09-18T18:13:37.763Z,17.90
2018-09-18T18:16:07.787Z,17.70
2018-09-18T18:18:36.511Z,17.70
2018-09-18T18:21:04.965Z,17.60
2018-09-18T18:23:33.328Z,17.40
2018-09-18T18:26:01.902Z,17.40
2018-09-18T18:28:30.147Z,17.40
2018-09-18T18:30:59.799Z,17.30
2018-09-18T18:33:31.054Z,17.20
2018-09-18T18:36:00.421Z,17.10
2018-09-18T18:38:28.839Z,17.10
2018-09-18T18:40:57.962Z,16.90
2018-09-18T18:43:26.492Z,16.80
2018-09-18T18:45:54.985Z,16.80
2018-09-18T18:48:23.515Z,16.70
2018-09-18T18:50:54.590Z,16.70
2018-09-18T18:53:23.949Z,16.60
2018-09-18T18:55:53.726Z,16.40
2018-09-18T18:58:24.018Z,16.40
2018-09-18T19:00:52.251Z,16.20
2018-09-18T19:03:20.263Z,16.20
2018-09-18T19:05:48.471Z,16.10
2018-09-18T19:08:17.280Z,16.00
2018-09-18T19:10:45.519Z,16.00
2018-09-18T19:13:14.870Z,15.90
2018-09-18T19:15:43.880Z,15.90
2018-09-18T19:18:12.964Z,15.80
2018-09-18T19:20:41.245Z,15.80
2018-09-18T19:23:11.676Z,15.70
2018-09-18T19:25:39.905Z,15.70
2018-09-18T19:28:07.994Z,15.60
2018-09-18T19:30:36.176Z,15.60
2018-09-18T19:33:05.011Z,15.50
2018-09-18T19:35:35.861Z,15.40
2018-09-18T19:38:05.818Z,15.40
2018-09-18T19:40:37.947Z,15.30
2018-09-18T19:43:07.985Z,15.30
2018-09-18T19:45:36.651Z,15.20
2018-09-18T19:48:05.062Z,15.20
2018-09-18T19:50:34.394Z,15.10
2018-09-18T19:53:04.234Z,15.00
2018-09-18T19:56:00.803Z,15.00
2018-09-18T19:58:29.862Z,14.90
2018-09-18T20:00:58.599Z,14.80
2018-09-18T20:03:26.781Z,14.80
2018-09-18T20:05:54.961Z,14.80
2018-09-18T20:08:23.759Z,14.70
2018-09-18T20:10:52.159Z,14.70
2018-09-18T20:13:20.376Z,14.60
2018-09-18T20:15:48.510Z,14.50
2018-09-18T20:18:16.479Z,14.50
2018-09-18T20:20:44.949Z,14.40
2018-09-18T20:23:12.923Z,14.40
2018-09-18T20:25:41.932Z,14.40
2018-09-18T20:28:10.261Z,14.30
2018-09-18T20:30:38.223Z,14.30
2018-09-18T20:33:06.450Z,14.30
2018-09-18T20:35:34.509Z,14.20
2018-09-18T20:38:02.615Z,14.20
2018-09-18T20:40:30.498Z,14.10
2018-09-18T20:42:58.719Z,14.00
2018-09-18T20:45:27.155Z,13.90
2018-09-18T20:47:55.535Z,13.90
2018-09-18T20:50:23.990Z,13.90
2018-09-18T20:52:54.988Z,13.90
2018-09-18T20:55:23.100Z,13.90
2018-09-18T20:57:52.399Z,14.00
2018-09-18T21:00:21.162Z,14.00
2018-09-18T21:02:49.553Z,13.90
2018-09-18T21:05:17.534Z,14.00
2018-09-18T21:07:45.821Z,14.00
2018-09-18T21:10:13.898Z,14.00
2018-09-18T21:12:41.953Z,14.00
2018-09-18T21:15:10.093Z,13.90
2018-09-18T21:18:41.207Z,13.90
2018-09-18T21:21:09.360Z,13.90
2018-09-18T21:23:37.277Z,13.80
2018-09-18T21:26:08.657Z,13.70
2018-09-18T21:28:36.767Z,13.60
2018-09-18T21:31:04.885Z,13.60
2018-09-18T21:33:32.810Z,13.60
2018-09-18T21:36:01.144Z,13.60
2018-09-18T21:38:29.679Z,13.60
2018-09-18T21:41:04.503Z,13.60
2018-09-18T21:43:32.775Z,13.50
2018-09-18T21:46:00.772Z,13.50
2018-09-18T21:48:28.821Z,13.50
2018-09-18T21:50:56.868Z,13.50
2018-09-18T21:53:24.605Z,13.50
2018-09-18T21:55:52.771Z,13.50
2018-09-18T21:58:21.055Z,13.50
2018-09-18T22:00:49.036Z,13.50
2018-09-18T22:03:17.102Z,13.50
2018-09-18T22:05:45.036Z,13.50
2018-09-18T22:08:13.066Z,13.50
2018-09-18T22:10:41.288Z,13.50
2018-09-18T22:13:09.588Z,13.40
2018-09-18T22:15:37.425Z,13.30
2018-09-18T22:18:05.778Z,13.30
2018-09-18T22:20:33.946Z,13.20
2018-09-18T22:23:01.885Z,13.20
2018-09-18T22:25:29.751Z,13.20
2018-09-18T22:27:57.688Z,13.20
2018-09-18T22:30:25.808Z,13.20
2018-09-18T22:32:54.239Z,13.20
2018-09-18T22:35:22.240Z,13.20
2018-09-18T22:37:50.230Z,13.20
2018-09-18T22:40:18.486Z,13.20
2018-09-18T22:42:46.678Z,13.20
2018-09-18T22:45:14.516Z,13.10
2018-09-18T22:47:42.642Z,13.10
2018-09-18T22:50:10.557Z,13.10
2018-09-18T22:52:39.115Z,13.10
2018-09-18T22:55:07.079Z,13.10
2018-09-18T22:57:35.090Z,13.10
2018-09-18T23:00:03.173Z,13.10
2018-09-18T23:03:34.472Z,13.00
2018-09-18T23:06:02.392Z,13.00
2018-09-18T23:08:30.606Z,13.00
2018-09-18T23:10:58.511Z,13.00
2018-09-18T23:13:26.593Z,12.90
2018-09-18T23:15:54.596Z,12.90
2018-09-18T23:18:22.642Z,12.80
2018-09-18T23:20:50.623Z,12.80
2018-09-18T23:23:18.594Z,12.80
2018-09-18T23:25:46.701Z,12.80
2018-09-18T23:28:14.910Z,12.70
2018-09-18T23:30:43.475Z,12.70
2018-09-18T23:33:11.501Z,12.70
2018-09-18T23:35:39.645Z,12.70
2018-09-18T23:38:07.892Z,12.70
2018-09-18T23:40:36.016Z,12.70
2018-09-18T23:43:03.751Z,12.70
2018-09-18T23:45:31.574Z,12.70
2018-09-18T23:47:59.482Z,12.70
2018-09-18T23:50:27.575Z,12.70
2018-09-18T23:52:55.659Z,12.60
2018-09-18T23:55:23.852Z,12.60
2018-09-18T23:57:52.033Z,12.60
